Hauptseite
METAR-TAF:

METAR-TAF

Flughäfen :

Flughafen Sønderborg

Sønderborg, Dänemark

Breite: 54-58N, Länge: 009-47E, Höhe: 7 m

Beobachtung

Neuester Wetterbericht von vor 42 Minuten, um 18:20 UTC
Wind 5 kt aus West/Südwest, variierte zwischen Südwest und West/Nordwest
Temperatur 23°C
Luftfeuchtigkeit 61%
Luftdruck 1016 hPa
Sichtweite 10 km oder mehr

METAR: EKSB 051820Z AUTO 25005KT 220V290 9999NDV OVC017/// 23/15 Q1016

Zeit: 21:02 (19:02 UTC)

Prognose

Neuester Wetterbericht von vor 7 Stunden und 1 Minuten, um 12:01 UTC
Gültige Prognose vom 05 um 12 UTC bis 05 um 13 UTC
Wind 12 kt aus Süd
Sichtweite 10 km oder mehr
Leicht bewölkt in der Höhe von 3000 ft
Zeitweise
vom 05 um 12 UTC bis 05 um 13 UTC
Durchbrochene Bewölkung in der Höhe von 800 ft

TAF: EKSB 051201Z 0512/0513 19012KT 9999 FEW030 TEMPO 0512/0513 BKN008

Wetterbeobachtungen und Prognosen von mehr als 4000 Flughäfen (METAR und TAF Bericht).

Die verfügbaren Stationen werden durch gelbe und rote Markierungen auf der Karte dargestellt.

Führen Sie die Maus auf sie, um den Namen der Station zu sehen.

Darauf klicken, um die Beobachtung von Wetterbeobachtungen und Prognosen zu sehen.

Um die Karte zu ändern : klicken Sie auf den grünen Tasten mit einem schwarzen Kreuz Zum Vergrößern, auf den grünen Button mit einem Gedankenstrich zu verkleinern, oder auf die grünen Pfeile für benachbarte Karten.


METAR-TAF: